Time;durP1;ratioP1;P1;durP2;ratioP2;P2;SDS_P1;SDS_P2;PMS_P1;PMS_P2;Temp;Humidity;BMP_temperature;BMP_pressure;BME280_temperature;BME280_humidity;BME280_pressure;Samples;Min_cycle;Max_cycle;Signal;HPM_P1;HPM_P2
2023/12/07 00:01:37;;;;;;;;;;;;;;;0.84;38.24;101950.75;5072218;28;20011;-58
2023/12/07 00:04:02;;;;;;;;;;;;;;;0.80;38.11;101946.56;5074351;28;19920;-59
2023/12/07 00:06:27;;;;;;;;;;;;;;;0.85;37.83;101944.50;5071862;28;19924;-67
2023/12/07 00:08:53;;;;;;;;;;;;;;;0.86;38.47;101946.19;5073297;28;19977;-66
2023/12/07 00:11:18;;;;;;;;;;;;;;;0.85;37.78;101944.50;5073601;28;19934;-65
2023/12/07 00:13:44;;;;;;;;;;;;;;;0.85;38.57;101950.63;5071994;28;19916;-65
2023/12/07 00:16:09;;;;;;;;;;;;;;;0.87;38.39;101951.38;5073740;28;20363;-66
2023/12/07 00:18:35;;;;;;;;;;;;;;;0.85;37.66;101961.19;5071540;28;19912;-66
2023/12/07 00:21:01;;;;;;;;;;;;;;;0.87;37.49;101961.94;5073548;28;19912;-66
2023/12/07 00:23:26;;;;;;;;;;;;;;;0.86;38.40;101962.06;5073725;28;19995;-66
2023/12/07 00:25:51;;;;;;;;;;;;;;;0.91;38.07;101957.31;5072022;28;19924;-66
2023/12/07 00:28:17;;;;;;;;;;;;;;;0.93;37.73;101955.47;5092544;28;19918;-59
2023/12/07 00:30:42;;;;;;;;;;;;;;;0.94;37.96;101959.78;5084603;28;20007;-58
2023/12/07 00:33:08;;;;;;;;;;;;;;;0.91;38.05;101959.97;5073196;28;19916;-56
2023/12/07 00:35:34;;;;;;;;;;;;;;;0.90;37.78;101961.78;5073433;28;19955;-58
2023/12/07 00:38:00;;;;;;;;;;;;;;;0.92;38.07;101948.47;5071295;28;19952;-59
2023/12/07 00:40:25;;;;;;;;;;;;;;;0.91;38.22;101944.97;5072617;28;19912;-59
2023/12/07 00:42:50;;;;;;;;;;;;;;;0.88;37.84;101950.44;5071822;28;20344;-58
2023/12/07 00:45:16;;;;;;;;;;;;;;;0.86;38.07;101952.34;5072945;28;19999;-60
2023/12/07 00:47:42;;;;;;;;;;;;;;;0.88;38.32;101954.88;5073437;28;19939;-60
2023/12/07 00:50:07;;;;;;;;;;;;;;;0.92;37.88;101953.75;5071251;28;19919;-60
2023/12/07 00:52:32;;;;;;;;;;;;;;;0.89;38.46;101954.81;5073022;28;19917;-59
2023/12/07 00:54:58;;;;;;;;;;;;;;;0.89;38.43;101949.50;5072230;28;19917;-56
2023/12/07 00:57:23;;;;;;;;;;;;;;;0.95;38.43;101950.94;5085754;28;19912;-56
2023/12/07 00:59:49;;;;;;;;;;;;;;;0.98;38.39;101942.78;5093264;28;19913;-56
2023/12/07 01:02:14;;;;;;;;;;;;;;;0.98;38.42;101956.00;5076084;28;19912;-58
2023/12/07 01:04:39;;;;;;;;;;;;;;;0.98;38.00;101947.22;5073178;28;20391;-60
2023/12/07 01:07:05;;;;;;;;;;;;;;;0.97;38.07;101959.63;5072534;28;20541;-57
2023/12/07 01:09:30;;;;;;;;;;;;;;;0.96;38.17;101963.19;5071419;28;20354;-59
2023/12/07 01:11:57;;;;;;;;;;;;;;;0.95;38.16;101961.50;5072442;28;19920;-59
2023/12/07 01:14:24;;;;;;;;;;;;;;;0.90;38.45;101956.47;5070924;28;19916;-61
2023/12/07 01:16:49;;;;;;;;;;;;;;;0.91;38.34;101955.56;5079100;28;20019;-64
2023/12/07 01:19:14;;;;;;;;;;;;;;;0.93;38.16;101951.03;5089261;28;19927;-63
2023/12/07 01:21:40;;;;;;;;;;;;;;;0.91;38.50;101960.84;5071469;28;19970;-63
2023/12/07 01:24:06;;;;;;;;;;;;;;;0.95;38.24;101950.94;5073362;28;20399;-50
2023/12/07 01:26:32;;;;;;;;;;;;;;;0.95;38.95;101954.41;5072060;28;19939;-50
2023/12/07 01:28:57;;;;;;;;;;;;;;;0.94;38.23;101960.63;5071263;28;19920;-49
2023/12/07 01:31:22;;;;;;;;;;;;;;;0.98;38.59;101963.94;5071694;28;19913;-48
2023/12/07 01:33:48;;;;;;;;;;;;;;;1.00;38.26;101962.06;5071638;28;19923;-50
2023/12/07 01:36:13;;;;;;;;;;;;;;;0.97;38.30;101972.84;5071668;28;19919;-50
2023/12/07 01:38:38;;;;;;;;;;;;;;;0.92;38.18;101974.91;5071770;28;20003;-50
2023/12/07 01:41:04;;;;;;;;;;;;;;;0.95;38.96;101975.56;5072546;28;19962;-52
2023/12/07 01:43:29;;;;;;;;;;;;;;;0.98;38.85;101982.47;5073256;28;19977;-54
2023/12/07 01:45:56;;;;;;;;;;;;;;;0.99;38.15;101985.97;5073211;28;19920;-50
2023/12/07 01:48:23;;;;;;;;;;;;;;;0.98;38.52;101989.56;5073017;28;19955;-49
2023/12/07 01:50:49;;;;;;;;;;;;;;;0.98;38.41;101985.09;5080066;28;19981;-50
2023/12/07 01:53:15;;;;;;;;;;;;;;;1.02;38.15;101981.31;5097197;28;20545;-48
2023/12/07 01:55:41;;;;;;;;;;;;;;;1.01;38.23;101982.28;5096263;28;19966;-49
2023/12/07 01:58:07;;;;;;;;;;;;;;;1.01;38.33;101982.28;5095289;28;19947;-49
2023/12/07 02:00:33;;;;;;;;;;;;;;;0.99;38.26;101978.03;5076711;28;20369;-48
2023/12/07 02:02:58;;;;;;;;;;;;;;;0.97;38.95;101970.19;5061669;28;20409;-49
2023/12/07 02:05:24;;;;;;;;;;;;;;;1.02;38.46;101961.97;5056321;28;20083;-51
2023/12/07 02:07:49;;;;;;;;;;;;;;;1.04;38.42;101963.59;5086239;28;19918;-49
2023/12/07 02:10:15;;;;;;;;;;;;;;;1.06;38.54;101974.94;5096865;28;19912;-50
2023/12/07 02:12:40;;;;;;;;;;;;;;;1.08;39.02;101970.38;5096514;28;19971;-49
2023/12/07 02:15:07;;;;;;;;;;;;;;;1.08;38.28;101975.69;5096726;28;19961;-49
2023/12/07 02:17:38;;;;;;;;;;;;;;;1.10;38.07;101981.72;5077812;28;20028;-50
2023/12/07 02:20:07;;;;;;;;;;;;;;;1.06;38.05;101974.94;5076359;28;19919;-50
2023/12/07 02:22:36;;;;;;;;;;;;;;;1.05;38.34;101975.00;5075925;28;19916;-49
2023/12/07 02:25:08;;;;;;;;;;;;;;;1.03;38.15;101975.09;5076351;28;19952;-53
2023/12/07 02:27:37;;;;;;;;;;;;;;;1.06;38.80;101971.41;5075958;28;19942;-49
2023/12/07 02:30:03;;;;;;;;;;;;;;;1.06;38.50;101967.00;5075926;28;19999;-50
2023/12/07 02:32:28;;;;;;;;;;;;;;;1.03;38.38;101958.38;5074901;28;19954;-50
2023/12/07 02:34:54;;;;;;;;;;;;;;;1.01;38.14;101965.56;5076023;28;19912;-50
2023/12/07 02:37:21;;;;;;;;;;;;;;;0.96;38.80;101961.38;5075749;28;20338;-51
2023/12/07 02:39:47;;;;;;;;;;;;;;;0.96;39.06;101960.53;5075644;28;19916;-49
2023/12/07 02:42:13;;;;;;;;;;;;;;;0.99;38.86;101962.16;5075927;28;20043;-52
2023/12/07 02:44:39;;;;;;;;;;;;;;;0.99;38.86;101964.81;5075578;28;19917;-50
2023/12/07 02:47:05;;;;;;;;;;;;;;;1.00;38.84;101964.69;5075594;28;19935;-48
2023/12/07 02:49:30;;;;;;;;;;;;;;;1.00;38.20;101966.50;5075411;28;20338;-52
2023/12/07 02:51:56;;;;;;;;;;;;;;;0.95;38.54;101961.50;5090655;28;20028;-51
2023/12/07 02:54:21;;;;;;;;;;;;;;;0.95;38.55;101966.81;5089757;28;19921;-53
2023/12/07 02:56:48;;;;;;;;;;;;;;;0.96;38.55;101965.84;5070125;28;19912;-48
2023/12/07 02:59:13;;;;;;;;;;;;;;;0.93;38.54;101963.41;5078537;28;19913;-48
2023/12/07 03:01:38;;;;;;;;;;;;;;;0.92;38.66;101961.69;5070853;28;19963;-50
2023/12/07 03:04:04;;;;;;;;;;;;;;;0.92;38.73;101965.16;5055370;28;19913;-49
2023/12/07 03:06:29;;;;;;;;;;;;;;;0.94;38.05;101965.94;5054957;28;19920;-49
2023/12/07 03:08:54;;;;;;;;;;;;;;;0.89;38.67;101960.09;5055005;28;19935;-50
2023/12/07 03:11:20;;;;;;;;;;;;;;;0.94;38.20;101965.09;5054898;28;20003;-50
2023/12/07 03:13:45;;;;;;;;;;;;;;;0.98;38.35;101968.41;5054770;28;19924;-52
2023/12/07 03:16:10;;;;;;;;;;;;;;;1.00;38.63;101963.84;5061812;28;19912;-48
2023/12/07 03:18:36;;;;;;;;;;;;;;;0.98;38.39;101968.41;5074890;28;19920;-50
2023/12/07 03:21:02;;;;;;;;;;;;;;;0.99;38.41;101967.47;5075099;28;19985;-50
2023/12/07 03:23:28;;;;;;;;;;;;;;;1.03;38.54;101963.69;5075328;28;19970;-49
2023/12/07 03:25:53;;;;;;;;;;;;;;;1.07;38.50;101957.25;5074904;28;19912;-48
2023/12/07 03:28:19;;;;;;;;;;;;;;;1.10;38.34;101954.41;5074906;28;19923;-51
2023/12/07 03:30:44;;;;;;;;;;;;;;;1.11;38.72;101956.09;5074971;28;19913;-48
2023/12/07 03:33:09;;;;;;;;;;;;;;;1.06;38.11;101952.88;5074968;28;20019;-50
2023/12/07 03:35:35;;;;;;;;;;;;;;;1.03;38.73;101950.44;5074708;28;19912;-50
2023/12/07 03:38:00;;;;;;;;;;;;;;;1.02;38.30;101951.38;5074790;28;19951;-49
2023/12/07 03:40:26;;;;;;;;;;;;;;;1.02;38.09;101959.31;5074555;28;19926;-49
2023/12/07 03:42:52;;;;;;;;;;;;;;;0.95;38.51;101954.41;5074741;28;19921;-50
2023/12/07 03:45:18;;;;;;;;;;;;;;;0.95;39.02;101957.06;5074529;28;19913;-48
2023/12/07 03:47:43;;;;;;;;;;;;;;;0.93;38.58;101953.66;5088488;28;19916;-50
2023/12/07 03:50:09;;;;;;;;;;;;;;;0.89;37.94;101961.88;5094601;28;19923;-49
2023/12/07 03:52:34;;;;;;;;;;;;;;;0.88;38.86;101957.53;5076677;28;19913;-49
2023/12/07 03:54:59;;;;;;;;;;;;;;;0.81;37.90;101957.03;5073627;28;19995;-48
2023/12/07 03:57:25;;;;;;;;;;;;;;;0.78;38.95;101951.97;5088246;28;19912;-49
2023/12/07 03:59:52;;;;;;;;;;;;;;;0.74;38.95;101953.06;5094505;28;19960;-50
2023/12/07 04:02:17;;;;;;;;;;;;;;;0.69;38.87;101952.53;5085101;28;19920;-48
2023/12/07 04:04:43;;;;;;;;;;;;;;;0.65;38.68;101951.84;5074486;28;19960;-47
2023/12/07 04:07:08;;;;;;;;;;;;;;;0.60;38.25;101955.72;5074134;28;19916;-49
2023/12/07 04:09:33;;;;;;;;;;;;;;;0.53;38.65;101956.06;5074085;28;19912;-49
2023/12/07 04:11:59;;;;;;;;;;;;;;;0.46;38.09;101961.81;5073886;28;19964;-50
2023/12/07 04:14:24;;;;;;;;;;;;;;;0.45;38.65;101957.47;5072914;28;19917;-49
2023/12/07 04:16:50;;;;;;;;;;;;;;;0.37;38.08;101960.53;5073958;28;19912;-49
2023/12/07 04:19:15;;;;;;;;;;;;;;;0.32;38.28;101963.47;5073999;28;20526;-49
2023/12/07 04:21:40;;;;;;;;;;;;;;;0.31;38.19;101959.13;5073870;28;20025;-50
2023/12/07 04:24:06;;;;;;;;;;;;;;;0.26;38.77;101953.28;5073717;28;20006;-49
2023/12/07 04:26:33;;;;;;;;;;;;;;;0.25;37.93;101953.38;5073711;28;19961;-50
2023/12/07 04:28:58;;;;;;;;;;;;;;;0.22;38.72;101951.72;5073633;28;19912;-49
2023/12/07 04:31:23;;;;;;;;;;;;;;;0.24;38.01;101946.38;5073539;28;19918;-50
2023/12/07 04:33:49;;;;;;;;;;;;;;;0.22;38.77;101945.59;5073852;28;20020;-51
2023/12/07 04:36:14;;;;;;;;;;;;;;;0.21;38.39;101950.03;5073904;28;19916;-50
2023/12/07 04:38:40;;;;;;;;;;;;;;;0.15;38.07;101948.63;5084548;28;19917;-52
2023/12/07 04:41:05;;;;;;;;;;;;;;;0.16;38.44;101950.31;5073751;28;19916;-49
2023/12/07 04:43:30;;;;;;;;;;;;;;;0.12;38.73;101951.44;5073984;28;19998;-49
2023/12/07 04:45:56;;;;;;;;;;;;;;;0.11;38.89;101947.09;5073621;28;19943;-49
2023/12/07 04:48:23;;;;;;;;;;;;;;;0.10;38.14;101950.66;5073192;28;19999;-50
2023/12/07 04:50:48;;;;;;;;;;;;;;;0.11;38.07;101955.03;5078956;28;20394;-50
2023/12/07 04:53:13;;;;;;;;;;;;;;;0.12;38.15;101955.88;5093357;28;19923;-49
2023/12/07 04:55:39;;;;;;;;;;;;;;;0.14;38.73;101952.19;5076956;28;19916;-53
2023/12/07 04:58:04;;;;;;;;;;;;;;;0.16;37.96;101949.47;5073592;28;19958;-49
2023/12/07 05:00:29;;;;;;;;;;;;;;;0.16;38.69;101952.09;5073334;28;19912;-50
2023/12/07 05:02:55;;;;;;;;;;;;;;;0.15;38.21;101958.34;5073236;28;19940;-48
2023/12/07 05:05:20;;;;;;;;;;;;;;;0.16;38.41;101952.09;5073223;28;20007;-49
2023/12/07 05:07:46;;;;;;;;;;;;;;;0.15;38.14;101959.19;5072944;28;20035;-51
2023/12/07 05:10:11;;;;;;;;;;;;;;;0.15;38.81;101958.34;5073458;28;19913;-50
2023/12/07 05:12:36;;;;;;;;;;;;;;;0.14;39.06;101960.09;5072819;28;19920;-51
2023/12/07 05:15:04;;;;;;;;;;;;;;;0.16;38.82;101957.38;5071850;28;20368;-49
2023/12/07 05:17:29;;;;;;;;;;;;;;;0.14;39.05;101959.25;5073426;28;19912;-50
2023/12/07 05:19:55;;;;;;;;;;;;;;;0.15;38.52;101953.06;5073180;28;19962;-50
2023/12/07 05:22:21;;;;;;;;;;;;;;;0.18;38.51;101950.22;5073007;28;19912;-51
2023/12/07 05:24:46;;;;;;;;;;;;;;;0.21;38.70;101944.75;5073135;28;19913;-49
2023/12/07 05:27:12;;;;;;;;;;;;;;;0.26;38.30;101949.75;5081234;28;20708;-52
2023/12/07 05:29:38;;;;;;;;;;;;;;;0.27;38.57;101956.75;5093421;28;19912;-49
2023/12/07 05:32:04;;;;;;;;;;;;;;;0.29;39.03;101949.59;5093612;28;19912;-48
2023/12/07 05:34:29;;;;;;;;;;;;;;;0.29;38.68;101949.59;5087595;28;19916;-48
2023/12/07 05:36:54;;;;;;;;;;;;;;;0.33;38.39;101946.66;5073049;28;19917;-50
2023/12/07 05:39:20;;;;;;;;;;;;;;;0.33;38.46;101954.59;5073402;28;19912;-50
2023/12/07 05:41:46;;;;;;;;;;;;;;;0.34;38.80;101944.91;5072857;28;20007;-50
2023/12/07 05:44:12;;;;;;;;;;;;;;;0.34;38.10;101952.81;5073761;28;19952;-51
2023/12/07 05:46:38;;;;;;;;;;;;;;;0.36;38.36;101949.13;5074038;28;19913;-49
2023/12/07 05:49:04;;;;;;;;;;;;;;;0.41;38.44;101950.66;5073130;28;19973;-49
2023/12/07 05:51:29;;;;;;;;;;;;;;;0.42;38.34;101952.38;5084165;28;20323;-49
2023/12/07 05:53:55;;;;;;;;;;;;;;;0.39;38.70;101953.41;5090844;28;19958;-50
2023/12/07 05:56:20;;;;;;;;;;;;;;;0.42;38.06;101952.38;5072963;28;19917;-49
2023/12/07 05:58:45;;;;;;;;;;;;;;;0.44;37.88;101953.97;5072712;28;20003;-51
2023/12/07 06:01:11;;;;;;;;;;;;;;;0.47;38.48;101953.78;5073028;28;19913;-51
2023/12/07 06:03:36;;;;;;;;;;;;;;;0.50;37.99;101950.97;5072659;28;19913;-48
2023/12/07 06:06:02;;;;;;;;;;;;;;;0.48;37.98;101950.19;5072926;28;19917;-48
2023/12/07 06:08:28;;;;;;;;;;;;;;;0.49;37.81;101943.13;5072690;28;19958;-49
2023/12/07 06:10:53;;;;;;;;;;;;;;;0.49;38.68;101948.41;5072808;28;19912;-49
2023/12/07 06:13:18;;;;;;;;;;;;;;;0.51;38.71;101954.47;5072375;28;19921;-50
2023/12/07 06:15:44;;;;;;;;;;;;;;;0.49;37.99;101957.19;5071332;28;19912;-49
2023/12/07 06:18:09;;;;;;;;;;;;;;;0.47;37.91;101956.44;5089846;28;19916;-49
2023/12/07 06:20:35;;;;;;;;;;;;;;;0.48;38.46;101958.13;5092993;28;19912;-51
2023/12/07 06:23:01;;;;;;;;;;;;;;;0.49;38.29;101961.63;5092897;28;20348;-50
2023/12/07 06:25:27;;;;;;;;;;;;;;;0.48;38.10;101963.41;5093624;28;19912;-52
2023/12/07 06:27:56;;;;;;;;;;;;;;;0.56;38.58;101969.09;5093594;28;19912;-52
2023/12/07 06:30:21;;;;;;;;;;;;;;;0.59;37.95;101965.41;5091223;28;20199;-53
2023/12/07 06:32:47;;;;;;;;;;;;;;;0.61;38.31;101967.97;5072829;28;19916;-49
2023/12/07 06:35:12;;;;;;;;;;;;;;;0.65;38.38;101964.19;5072675;28;19959;-48
2023/12/07 06:37:37;;;;;;;;;;;;;;;0.66;38.43;101966.75;5075128;28;19912;-48
2023/12/07 06:40:04;;;;;;;;;;;;;;;0.71;37.92;101963.84;5075942;28;19913;-49
2023/12/07 06:42:29;;;;;;;;;;;;;;;0.71;37.69;101964.69;5076026;28;20254;-48
2023/12/07 06:44:55;;;;;;;;;;;;;;;0.74;37.75;101972.44;5075915;28;19927;-48
2023/12/07 06:47:21;;;;;;;;;;;;;;;0.76;38.38;101972.34;5075933;28;19995;-48
2023/12/07 06:49:46;;;;;;;;;;;;;;;0.77;38.61;101977.53;5075814;28;20436;-50
2023/12/07 06:52:12;;;;;;;;;;;;;;;0.83;38.48;101978.13;5093095;28;19939;-50
2023/12/07 06:54:38;;;;;;;;;;;;;;;0.85;38.32;101978.88;5087594;28;19924;-50
2023/12/07 06:57:04;;;;;;;;;;;;;;;0.88;38.17;101981.34;5075448;28;19962;-52
2023/12/07 06:59:29;;;;;;;;;;;;;;;0.92;37.80;101982.84;5075335;28;19955;-48
2023/12/07 07:01:54;;;;;;;;;;;;;;;0.93;37.96;101980.13;5075119;28;19924;-48
2023/12/07 07:04:20;;;;;;;;;;;;;;;0.94;37.68;101987.09;5075420;28;19912;-48
2023/12/07 07:06:45;;;;;;;;;;;;;;;0.99;37.90;101991.28;5081200;28;19920;-51
2023/12/07 07:09:12;;;;;;;;;;;;;;;1.05;37.69;101990.88;5095771;28;19966;-53
2023/12/07 07:11:38;;;;;;;;;;;;;;;1.06;37.53;101984.63;5080770;28;19924;-50
2023/12/07 07:14:03;;;;;;;;;;;;;;;1.08;37.75;101990.72;5075539;28;19917;-50
2023/12/07 07:16:28;;;;;;;;;;;;;;;1.10;37.61;101983.53;5075046;28;20003;-52
2023/12/07 07:18:54;;;;;;;;;;;;;;;1.14;38.00;101982.38;5075397;28;19923;-51
2023/12/07 07:21:19;;;;;;;;;;;;;;;1.20;38.02;101981.16;5075426;28;19952;-49
2023/12/07 07:23:45;;;;;;;;;;;;;;;1.20;37.63;101982.00;5075294;28;20021;-51
2023/12/07 07:26:11;;;;;;;;;;;;;;;1.23;37.71;101978.31;5074840;28;19916;-51
2023/12/07 07:28:36;;;;;;;;;;;;;;;1.21;38.20;101972.25;5075215;28;19939;-51
2023/12/07 07:31:02;;;;;;;;;;;;;;;1.24;38.04;101974.72;5075126;28;19916;-50
2023/12/07 07:33:28;;;;;;;;;;;;;;;1.26;38.23;101978.13;5074817;28;19931;-49
2023/12/07 07:35:53;;;;;;;;;;;;;;;1.23;37.20;101973.88;5074525;28;19923;-52
2023/12/07 07:38:18;;;;;;;;;;;;;;;1.25;37.42;101976.44;5074937;28;19913;-50
2023/12/07 07:40:45;;;;;;;;;;;;;;;1.25;38.16;101973.78;5074822;28;20042;-51
2023/12/07 07:43:12;;;;;;;;;;;;;;;1.25;37.69;101977.28;5074912;28;19920;-50
2023/12/07 07:45:37;;;;;;;;;;;;;;;1.29;38.13;101972.63;5075052;28;20307;-50
2023/12/07 07:48:02;;;;;;;;;;;;;;;1.34;37.66;101960.81;5074478;28;19978;-51
2023/12/07 07:50:28;;;;;;;;;;;;;;;1.41;37.11;101965.72;5077365;28;19912;-49
2023/12/07 07:52:54;;;;;;;;;;;;;;;1.41;37.33;101968.38;5094830;28;19915;-50
2023/12/07 07:55:20;;;;;;;;;;;;;;;1.43;37.57;101972.63;5080537;28;19935;-52
2023/12/07 07:57:48;;;;;;;;;;;;;;;1.44;37.34;101966.38;5088741;28;19957;-53
2023/12/07 08:00:13;;;;;;;;;;;;;;;1.46;37.32;101969.78;5094841;28;19916;-52
2023/12/07 08:02:39;;;;;;;;;;;;;;;1.47;37.83;101974.13;5082317;28;20034;-54
2023/12/07 08:05:04;;;;;;;;;;;;;;;1.47;37.38;101974.13;5073774;28;19912;-54
2023/12/07 08:07:30;;;;;;;;;;;;;;;1.48;37.85;101973.16;5073332;28;20323;-56
2023/12/07 08:09:55;;;;;;;;;;;;;;;1.51;38.25;101970.34;5074516;28;20337;-53
2023/12/07 08:12:22;;;;;;;;;;;;;;;1.56;37.68;101967.41;5074138;28;19954;-55
2023/12/07 08:14:48;;;;;;;;;;;;;;;1.58;37.46;101964.63;5074119;28;19923;-51
2023/12/07 08:17:14;;;;;;;;;;;;;;;1.58;37.27;101960.22;5074147;28;19912;-56
2023/12/07 08:19:41;;;;;;;;;;;;;;;1.60;37.35;101965.38;5074287;28;20328;-51
2023/12/07 08:22:06;;;;;;;;;;;;;;;1.62;37.84;101968.81;5074137;28;20404;-52
2023/12/07 08:24:31;;;;;;;;;;;;;;;1.65;37.86;101964.16;5072287;28;19921;-53
2023/12/07 08:26:57;;;;;;;;;;;;;;;1.69;38.24;101965.66;5073058;28;20510;-56
2023/12/07 08:29:22;;;;;;;;;;;;;;;1.73;37.57;101964.53;5072321;28;19913;-54
2023/12/07 08:31:48;;;;;;;;;;;;;;;1.38;37.49;101892.66;5073928;28;19913;-54
2023/12/07 08:34:14;;;;;;;;;;;;;;;1.84;37.50;101955.00;5073768;28;20015;-54
2023/12/07 08:36:40;;;;;;;;;;;;;;;1.84;37.57;101952.38;5073368;28;20349;-53
2023/12/07 08:39:09;;;;;;;;;;;;;;;1.86;37.59;101951.34;5073651;28;19913;-50
2023/12/07 08:41:35;;;;;;;;;;;;;;;1.84;37.29;101950.59;5073840;28;19917;-54
2023/12/07 08:44:00;;;;;;;;;;;;;;;1.87;37.24;101958.31;5073784;28;20380;-54
2023/12/07 08:46:26;;;;;;;;;;;;;;;1.90;37.17;101951.97;5076351;28;19920;-54
2023/12/07 08:48:51;;;;;;;;;;;;;;;1.91;37.33;101949.25;5093891;28;19912;-54
2023/12/07 08:51:16;;;;;;;;;;;;;;;1.90;37.35;101947.53;5093863;28;19912;-52
2023/12/07 08:53:42;;;;;;;;;;;;;;;1.95;37.25;101941.94;5093314;28;19999;-54
2023/12/07 08:56:07;;;;;;;;;;;;;;;1.99;37.53;101937.25;5073483;28;20308;-53
2023/12/07 08:58:33;;;;;;;;;;;;;;;2.03;37.76;101944.91;5073548;28;19919;-55
2023/12/07 09:00:58;;;;;;;;;;;;;;;2.04;37.74;101941.31;5073167;28;19912;-54
2023/12/07 09:03:31;;;;;;;;;;;;;;;2.05;37.38;101950.97;5073305;28;19913;-51
2023/12/07 09:05:57;;;;;;;;;;;;;;;2.05;36.79;101945.66;5073263;28;19936;-54
2023/12/07 09:08:22;;;;;;;;;;;;;;;2.05;36.84;101956.25;5073329;28;20369;-53
2023/12/07 09:10:49;;;;;;;;;;;;;;;2.08;36.87;101957.84;5073171;28;19914;-52
2023/12/07 09:13:15;;;;;;;;;;;;;;;2.10;37.12;101953.31;5072809;28;20416;-53
2023/12/07 09:15:40;;;;;;;;;;;;;;;2.13;36.83;101955.75;5073025;28;19921;-54
2023/12/07 09:18:05;;;;;;;;;;;;;;;2.17;36.78;101951.94;5073142;28;19912;-53
2023/12/07 09:20:31;;;;;;;;;;;;;;;2.23;37.16;101948.91;5073320;28;19916;-55
2023/12/07 09:22:57;;;;;;;;;;;;;;;2.26;36.84;101953.97;5073024;28;19981;-55
2023/12/07 09:25:22;;;;;;;;;;;;;;;2.29;36.83;101955.59;5073082;28;19916;-53
2023/12/07 09:27:47;;;;;;;;;;;;;;;2.30;37.17;101966.09;5073112;28;20391;-54
2023/12/07 09:30:13;;;;;;;;;;;;;;;2.36;36.52;101954.22;5073029;28;19913;-54
2023/12/07 09:32:42;;;;;;;;;;;;;;;2.36;36.41;101948.06;5072711;28;19957;-54
2023/12/07 09:35:14;;;;;;;;;;;;;;;2.42;36.86;101952.97;5073133;28;19913;-53
2023/12/07 09:37:40;;;;;;;;;;;;;;;2.48;36.49;101960.50;5085970;28;19912;-54
2023/12/07 09:40:06;;;;;;;;;;;;;;;2.54;36.67;101957.41;5093271;28;20477;-51
2023/12/07 09:42:32;;;;;;;;;;;;;;;2.62;36.43;101960.41;5093128;28;19966;-54
2023/12/07 09:44:57;;;;;;;;;;;;;;;2.72;36.11;101963.28;5093160;28;19987;-53
2023/12/07 09:47:23;;;;;;;;;;;;;;;2.82;36.23;101958.19;5093298;28;19920;-52
2023/12/07 09:49:48;;;;;;;;;;;;;;;2.86;35.97;101954.34;5093107;28;19912;-51
2023/12/07 09:52:13;;;;;;;;;;;;;;;2.87;36.00;101948.09;5093314;28;19919;-53
2023/12/07 09:54:42;;;;;;;;;;;;;;;2.86;36.37;101946.41;5084721;28;19963;-51
2023/12/07 09:57:09;;;;;;;;;;;;;;;2.87;35.88;101956.91;5072669;28;19913;-54
2023/12/07 09:59:37;;;;;;;;;;;;;;;2.82;36.35;101960.84;5072877;28;20402;-53
2023/12/07 10:02:02;;;;;;;;;;;;;;;2.85;35.97;101956.16;5065391;28;19943;-55
2023/12/07 10:04:28;;;;;;;;;;;;;;;2.82;36.10;101948.44;5052452;28;19959;-51
2023/12/07 10:06:54;;;;;;;;;;;;;;;2.81;36.07;101957.34;5052651;28;19966;-52
2023/12/07 10:09:20;;;;;;;;;;;;;;;2.80;35.85;101952.97;5052740;28;19912;-51
2023/12/07 10:11:46;;;;;;;;;;;;;;;2.77;35.83;101957.63;5053758;28;20386;-53
2023/12/07 10:14:11;;;;;;;;;;;;;;;2.80;36.15;101949.47;5056333;28;19971;-52
2023/12/07 10:16:37;;;;;;;;;;;;;;;2.81;36.46;101953.84;5069090;28;19921;-55
2023/12/07 10:19:17;;;;;;;;;;;;;;;2.83;35.86;101943.97;5077165;28;19917;-54
2023/12/07 10:21:43;;;;;;;;;;;;;;;2.85;36.09;101945.56;5077373;28;19916;-52
2023/12/07 10:24:09;;;;;;;;;;;;;;;2.89;37.06;101943.53;5076701;28;19919;-53
2023/12/07 10:26:36;;;;;;;;;;;;;;;2.88;36.19;101941.84;5080691;28;19966;-56
2023/12/07 10:29:02;;;;;;;;;;;;;;;2.90;35.97;101938.13;5080214;28;19912;-52
2023/12/07 10:31:30;;;;;;;;;;;;;;;2.90;36.29;101932.81;5076206;28;20036;-52
2023/12/07 10:33:56;;;;;;;;;;;;;;;2.91;35.93;101926.53;5076000;28;20011;-55
2023/12/07 10:36:21;;;;;;;;;;;;;;;2.98;35.96;101931.44;5076075;28;20057;-54
2023/12/07 10:38:50;;;;;;;;;;;;;;;3.00;36.11;101924.22;5075970;28;19912;-56
2023/12/07 10:41:18;;;;;;;;;;;;;;;3.03;36.53;101926.66;5076237;28;20284;-53
2023/12/07 10:43:44;;;;;;;;;;;;;;;3.09;36.34;101916.44;5075766;28;19913;-54
2023/12/07 10:46:13;;;;;;;;;;;;;;;3.13;35.42;101914.44;5076116;28;19982;-52
2023/12/07 10:48:39;;;;;;;;;;;;;;;3.17;36.03;101915.91;5075414;28;19920;-54
2023/12/07 10:51:08;;;;;;;;;;;;;;;3.20;36.21;101909.53;5075373;28;19920;-54
2023/12/07 10:53:44;;;;;;;;;;;;;;;3.24;36.05;101905.69;5075850;28;19969;-53
2023/12/07 10:56:28;;;;;;;;;;;;;;;3.28;36.35;101905.34;5065979;28;20257;-52
2023/12/07 10:58:55;;;;;;;;;;;;;;;3.36;36.02;101901.31;5075957;28;19912;-51
2023/12/07 11:01:20;;;;;;;;;;;;;;;3.38;36.23;101899.38;5075300;28;19918;-54
2023/12/07 11:03:49;;;;;;;;;;;;;;;3.39;35.72;101901.94;5075595;28;19913;-52
2023/12/07 11:06:15;;;;;;;;;;;;;;;3.39;36.50;101904.59;5075315;28;20427;-51
2023/12/07 11:08:44;;;;;;;;;;;;;;;3.33;35.80;101910.34;5075525;28;19918;-54
2023/12/07 11:11:28;;;;;;;;;;;;;;;3.34;35.75;101912.03;5076267;28;19913;-55
2023/12/07 11:13:59;;;;;;;;;;;;;;;3.37;36.12;101914.47;5055949;28;20356;-56
2023/12/07 11:16:30;;;;;;;;;;;;;;;3.42;35.69;101919.47;5067278;28;19912;-54
2023/12/07 11:18:56;;;;;;;;;;;;;;;3.46;35.98;101912.97;5095648;28;19962;-55
2023/12/07 11:21:21;;;;;;;;;;;;;;;3.49;35.91;101910.94;5087764;28;19947;-53
2023/12/07 11:23:47;;;;;;;;;;;;;;;3.51;35.46;101905.53;5074584;28;19920;-54
2023/12/07 11:26:12;;;;;;;;;;;;;;;3.56;35.68;101911.31;5075043;28;19963;-52
2023/12/07 11:28:38;;;;;;;;;;;;;;;3.62;35.19;101908.22;5075055;28;19951;-55
2023/12/07 11:31:06;;;;;;;;;;;;;;;3.63;35.62;101904.59;5075222;28;19912;-52
2023/12/07 11:33:31;;;;;;;;;;;;;;;3.66;35.47;101899.06;5074636;28;20003;-50
2023/12/07 11:36:02;;;;;;;;;;;;;;;3.66;35.84;101904.38;5074681;28;20383;-52
2023/12/07 11:38:28;;;;;;;;;;;;;;;3.62;35.79;101889.66;5074813;28;20016;-51
2023/12/07 11:40:54;;;;;;;;;;;;;;;3.62;36.17;101904.72;5074952;28;19952;-53
2023/12/07 11:43:45;;;;;;;;;;;;;;;3.62;36.11;101902.91;5074728;28;20007;-51
2023/12/07 11:46:12;;;;;;;;;;;;;;;3.62;35.86;101902.91;5075151;28;19924;-51
2023/12/07 11:48:38;;;;;;;;;;;;;;;3.70;36.43;101899.69;5074889;28;19912;-51
2023/12/07 11:51:03;;;;;;;;;;;;;;;3.77;36.52;101902.72;5074876;28;19935;-53
2023/12/07 11:53:32;;;;;;;;;;;;;;;3.73;35.65;101898.63;5074533;28;19916;-52
2023/12/07 11:55:58;;;;;;;;;;;;;;;3.69;36.26;101895.34;5076071;28;19913;-54
2023/12/07 11:58:28;;;;;;;;;;;;;;;3.68;36.22;101894.50;5094737;28;19916;-52
2023/12/07 12:00:54;;;;;;;;;;;;;;;3.69;36.68;101896.16;5093643;28;19961;-51
2023/12/07 12:03:26;;;;;;;;;;;;;;;3.69;36.57;101906.78;5076871;28;19961;-51
2023/12/07 12:05:51;;;;;;;;;;;;;;;3.70;36.48;101907.66;5074608;28;19913;-52
2023/12/07 12:08:18;;;;;;;;;;;;;;;3.69;36.31;101908.63;5086726;28;19922;-50
2023/12/07 12:10:43;;;;;;;;;;;;;;;3.65;36.00;101908.00;5074202;28;19951;-53
2023/12/07 12:13:08;;;;;;;;;;;;;;;3.56;35.77;101905.16;5074067;28;20029;-52
2023/12/07 12:15:34;;;;;;;;;;;;;;;3.59;36.30;101907.59;5074464;28;19916;-52
2023/12/07 12:18:00;;;;;;;;;;;;;;;3.57;36.19;101901.56;5074132;28;20316;-52
2023/12/07 12:20:25;;;;;;;;;;;;;;;3.61;36.79;101905.69;5073938;28;20019;-52
2023/12/07 12:22:54;;;;;;;;;;;;;;;3.62;36.10;101908.22;5074169;28;19912;-54
2023/12/07 12:25:28;;;;;;;;;;;;;;;3.63;36.88;101904.59;5072797;28;19980;-52
2023/12/07 12:27:55;;;;;;;;;;;;;;;3.64;36.49;101910.75;5074010;28;19916;-51
2023/12/07 12:30:22;;;;;;;;;;;;;;;3.65;36.78;101910.66;5073986;28;19920;-51
2023/12/07 12:32:47;;;;;;;;;;;;;;;3.66;36.73;101909.69;5074004;28;19912;-51
2023/12/07 12:35:14;;;;;;;;;;;;;;;3.69;36.19;101906.78;5073259;28;20387;-54
2023/12/07 12:37:49;;;;;;;;;;;;;;;3.67;36.49;101908.72;5073703;28;19912;-54
2023/12/07 12:40:18;;;;;;;;;;;;;;;3.64;36.31;101906.31;5073597;28;20007;-56
2023/12/07 12:42:45;;;;;;;;;;;;;;;3.67;36.81;101898.09;5073796;28;19916;-55